Terminal Aerodrome Forecast
Issued by NWS

Home | Current Version | Previous Version | Text Only | Print | Product List | Glossary On
Versions: 1 2 3 4 5 6 7 8 9 10 11 12 13 14 15 16 17 18 19 20 21
000
FTUS43 KLSX 261440 AAA
TAFCPS
TAF AMD
KCPS 261440Z 2615/2712 08005KT P6SM BKN012
     FM261700 VRB03KT P6SM BKN035
     FM262100 06006KT P6SM SCT040
     FM270900 00000KT 5SM BR SKC=

USA.gov is the U.S. government's official web portal to all federal, state and local government web resources and services.